createdAt,value
2019-01-20T00:01:01.458Z,5.63
2019-01-20T00:05:54.314Z,5.00
2019-01-20T00:10:47.159Z,4.93
2019-01-20T00:15:40.913Z,5.50
2019-01-20T00:20:33.727Z,4.77
2019-01-20T00:25:26.565Z,4.60
2019-01-20T00:30:19.510Z,5.23
2019-01-20T00:35:12.377Z,5.13
2019-01-20T00:40:08.039Z,4.63
2019-01-20T00:45:02.702Z,4.60
2019-01-20T00:49:55.735Z,4.10
2019-01-20T00:54:48.580Z,5.17
2019-01-20T00:59:41.407Z,4.77
2019-01-20T01:04:34.253Z,4.20
2019-01-20T01:09:27.096Z,5.00
2019-01-20T01:14:19.946Z,4.73
2019-01-20T01:19:12.769Z,4.60
2019-01-20T01:24:05.608Z,4.90
2019-01-20T01:28:58.425Z,4.80
2019-01-20T01:33:51.226Z,4.10
2019-01-20T01:38:44.073Z,4.13
2019-01-20T01:43:36.904Z,4.40
2019-01-20T01:48:29.816Z,4.50
2019-01-20T01:53:22.640Z,4.03
2019-01-20T01:58:15.485Z,4.63
2019-01-20T02:03:08.313Z,4.20
2019-01-20T02:08:01.164Z,4.60
2019-01-20T02:12:53.968Z,4.20
2019-01-20T02:17:47.227Z,3.77
2019-01-20T02:22:40.251Z,4.20
2019-01-20T02:27:33.086Z,3.97
2019-01-20T02:32:25.930Z,4.00
2019-01-20T02:37:18.746Z,4.20
2019-01-20T02:42:11.610Z,4.33
2019-01-20T02:47:04.474Z,3.97
2019-01-20T02:51:57.325Z,3.87
2019-01-20T02:56:50.142Z,4.00
2019-01-20T03:01:43.102Z,4.30
2019-01-20T03:06:35.928Z,3.80
2019-01-20T03:11:28.843Z,3.80
2019-01-20T03:16:21.660Z,3.70
2019-01-20T03:21:14.508Z,3.90
2019-01-20T03:26:07.324Z,3.87
2019-01-20T03:31:00.197Z,3.97
2019-01-20T03:35:53.160Z,4.10
2019-01-20T03:40:45.967Z,4.23
2019-01-20T03:45:38.828Z,4.43
2019-01-20T03:50:31.629Z,4.03
2019-01-20T03:55:24.458Z,4.03
2019-01-20T04:00:20.274Z,4.70
2019-01-20T04:05:13.467Z,4.33
2019-01-20T04:10:10.235Z,3.23
2019-01-20T04:15:03.630Z,3.87
2019-01-20T04:19:57.325Z,3.93
2019-01-20T04:24:50.196Z,3.90
2019-01-20T04:29:43.015Z,3.97
2019-01-20T04:34:35.910Z,4.27
2019-01-20T04:39:28.835Z,3.87
2019-01-20T04:44:21.712Z,4.43
2019-01-20T04:49:14.551Z,3.90
2019-01-20T04:54:07.897Z,4.80
2019-01-20T04:59:00.744Z,4.30
2019-01-20T05:03:53.593Z,5.00
2019-01-20T05:08:46.430Z,4.47
2019-01-20T05:13:39.300Z,4.23
2019-01-20T05:18:32.130Z,3.83
2019-01-20T05:23:24.957Z,4.23
2019-01-20T05:28:17.778Z,3.90
2019-01-20T05:33:10.604Z,4.30
2019-01-20T05:38:03.737Z,4.33
2019-01-20T05:42:58.286Z,4.97
2019-01-20T05:47:51.122Z,4.10
2019-01-20T05:52:43.953Z,4.23
2019-01-20T05:57:36.788Z,4.40
2019-01-20T06:02:29.637Z,4.20
2019-01-20T06:07:22.439Z,4.40
2019-01-20T06:12:15.272Z,4.30
2019-01-20T06:17:08.087Z,4.53
2019-01-20T06:22:00.915Z,4.20
2019-01-20T06:26:53.799Z,4.90
2019-01-20T06:31:46.636Z,4.47
2019-01-20T06:36:39.436Z,4.30
2019-01-20T06:41:32.289Z,4.33
2019-01-20T06:46:25.870Z,4.17
2019-01-20T06:51:18.741Z,4.50
2019-01-20T06:56:11.576Z,4.60
2019-01-20T07:01:04.508Z,4.13
2019-01-20T07:05:57.363Z,4.33
2019-01-20T07:10:50.172Z,4.67
2019-01-20T07:15:43.027Z,4.50
2019-01-20T07:20:35.870Z,4.40
2019-01-20T07:25:28.739Z,4.50
2019-01-20T07:30:23.069Z,5.13
2019-01-20T07:35:15.926Z,4.87
2019-01-20T07:40:11.004Z,4.40
2019-01-20T07:45:06.947Z,4.90
2019-01-20T07:49:59.796Z,5.13
2019-01-20T07:54:52.655Z,4.97
2019-01-20T07:59:45.486Z,5.10
2019-01-20T08:04:38.287Z,5.17
2019-01-20T08:09:31.143Z,5.37
2019-01-20T08:14:23.987Z,5.27
2019-01-20T08:19:16.834Z,5.43
2019-01-20T08:24:09.681Z,5.37
2019-01-20T08:29:02.512Z,5.03
2019-01-20T08:33:55.332Z,6.00
2019-01-20T08:38:48.163Z,5.07
2019-01-20T08:43:41.101Z,5.30
2019-01-20T08:48:34.162Z,5.97
2019-01-20T08:53:28.392Z,5.67
2019-01-20T08:58:21.537Z,5.73
2019-01-20T09:03:14.370Z,5.80
2019-01-20T09:08:07.209Z,5.53
2019-01-20T09:13:06.297Z,5.93
2019-01-20T09:17:59.150Z,5.77
2019-01-20T09:22:51.962Z,5.73
2019-01-20T09:27:44.862Z,5.87
2019-01-20T09:32:37.793Z,6.20
2019-01-20T09:37:30.716Z,6.50
2019-01-20T09:42:23.574Z,6.43
2019-01-20T09:47:16.378Z,6.30
2019-01-20T09:52:09.247Z,6.77
2019-01-20T09:57:02.051Z,6.90
2019-01-20T10:01:54.901Z,7.07
2019-01-20T10:06:47.723Z,6.83
2019-01-20T10:11:40.589Z,6.80
2019-01-20T10:16:33.386Z,7.60
2019-01-20T10:21:26.267Z,7.17
2019-01-20T10:26:19.172Z,6.30
2019-01-20T10:31:12.030Z,7.07
2019-01-20T10:36:05.814Z,7.43
2019-01-20T10:40:58.622Z,7.47
2019-01-20T10:45:51.473Z,8.10
2019-01-20T10:50:44.314Z,7.87
2019-01-20T10:55:37.142Z,6.97
2019-01-20T11:00:34.550Z,8.20
2019-01-20T11:05:30.724Z,7.77
2019-01-20T11:10:22.465Z,8.53
2019-01-20T11:15:15.505Z,9.03
2019-01-20T11:20:10.865Z,8.20
2019-01-20T11:25:05.241Z,9.10
2019-01-20T11:29:59.898Z,8.70
2019-01-20T11:34:52.779Z,9.00
2019-01-20T11:39:45.598Z,9.20
2019-01-20T11:44:38.455Z,8.90
2019-01-20T11:49:31.284Z,9.67
2019-01-20T11:54:24.188Z,9.73
2019-01-20T11:59:17.119Z,10.37
2019-01-20T12:04:09.956Z,10.37
2019-01-20T12:09:06.040Z,10.90
2019-01-20T12:13:58.912Z,10.60
2019-01-20T12:18:51.773Z,10.47
2019-01-20T12:23:44.675Z,10.40
2019-01-20T12:28:37.491Z,10.43
2019-01-20T12:33:30.312Z,11.23
2019-01-20T12:38:23.159Z,10.80
2019-01-20T12:43:16.018Z,11.03
2019-01-20T12:48:08.880Z,11.00
2019-01-20T12:53:01.694Z,10.90
2019-01-20T12:57:54.558Z,10.77
2019-01-20T13:02:47.537Z,10.93
2019-01-20T13:07:40.379Z,10.83
2019-01-20T13:12:33.235Z,10.13
2019-01-20T13:17:26.060Z,11.60
2019-01-20T13:22:18.909Z,11.33
2019-01-20T13:27:11.732Z,10.77
2019-01-20T13:32:04.705Z,10.07
2019-01-20T13:36:57.535Z,10.60
2019-01-20T13:41:50.404Z,10.87
2019-01-20T13:46:43.246Z,11.00
2019-01-20T13:51:36.086Z,10.53
2019-01-20T13:56:28.922Z,10.37
2019-01-20T14:01:21.764Z,9.67
2019-01-20T14:06:14.659Z,10.17
2019-01-20T14:11:07.482Z,10.33
2019-01-20T14:16:00.372Z,9.37
2019-01-20T14:20:53.206Z,9.50
2019-01-20T14:25:46.096Z,9.23
2019-01-20T14:30:39.040Z,9.20
2019-01-20T14:35:31.860Z,7.77
2019-01-20T14:40:24.717Z,9.10
2019-01-20T14:45:18.109Z,8.73
2019-01-20T14:50:16.044Z,8.97
2019-01-20T14:55:09.317Z,7.90
2019-01-20T15:00:02.635Z,7.40
2019-01-20T15:04:55.514Z,9.50
2019-01-20T15:09:48.398Z,10.40
2019-01-20T15:14:41.228Z,8.67
2019-01-20T15:19:34.035Z,7.47
2019-01-20T15:24:31.197Z,7.30
2019-01-20T15:29:21.680Z,7.23
2019-01-20T15:34:14.485Z,6.70
2019-01-20T15:39:08.359Z,7.63
2019-01-20T15:44:01.198Z,7.13
2019-01-20T15:48:54.035Z,7.37
2019-01-20T15:53:46.965Z,7.60
2019-01-20T15:58:39.827Z,7.77
2019-01-20T16:03:32.659Z,7.70
2019-01-20T16:08:25.474Z,7.57
2019-01-20T16:13:18.354Z,7.70
2019-01-20T16:18:14.383Z,7.93
2019-01-20T16:23:07.721Z,8.00
2019-01-20T16:28:00.532Z,7.57
2019-01-20T16:32:53.383Z,7.40
2019-01-20T16:37:47.195Z,8.17
2019-01-20T16:42:40.266Z,7.40
2019-01-20T16:47:34.825Z,8.53
2019-01-20T16:52:27.737Z,9.40
2019-01-20T16:57:20.589Z,8.97
2019-01-20T17:02:13.444Z,9.53
2019-01-20T17:07:06.432Z,10.17
2019-01-20T17:11:59.272Z,11.40
2019-01-20T17:16:52.091Z,11.23
2019-01-20T17:21:44.947Z,10.87
2019-01-20T17:26:37.809Z,11.77
2019-01-20T17:31:30.629Z,10.47
2019-01-20T17:36:23.479Z,10.60
2019-01-20T17:41:16.335Z,10.50
2019-01-20T17:46:09.202Z,10.83
2019-01-20T17:51:02.074Z,11.20
2019-01-20T17:55:54.951Z,11.53
2019-01-20T18:00:54.267Z,12.13
2019-01-20T18:05:47.613Z,10.90
2019-01-20T18:10:40.579Z,12.10
2019-01-20T18:15:33.474Z,13.50
2019-01-20T18:20:27.815Z,13.70
2019-01-20T18:25:21.130Z,13.77
2019-01-20T18:30:19.824Z,12.67
2019-01-20T18:35:12.773Z,13.03
2019-01-20T18:40:12.869Z,12.50
2019-01-20T18:45:07.440Z,12.63
2019-01-20T18:50:00.315Z,13.00
2019-01-20T18:54:53.192Z,13.13
2019-01-20T18:59:46.045Z,13.67
2019-01-20T19:04:38.878Z,12.70
2019-01-20T19:09:31.738Z,12.93
2019-01-20T19:14:24.573Z,12.87
2019-01-20T19:19:17.425Z,14.17
2019-01-20T19:24:10.303Z,14.83
2019-01-20T19:29:03.398Z,13.77
2019-01-20T19:33:56.431Z,13.00
2019-01-20T19:38:49.283Z,13.27
2019-01-20T19:43:42.122Z,13.77
2019-01-20T19:48:34.940Z,13.40
2019-01-20T19:53:27.761Z,13.47
2019-01-20T19:58:20.711Z,13.17
2019-01-20T20:03:13.616Z,14.57
2019-01-20T20:08:06.489Z,15.20
2019-01-20T20:12:59.320Z,15.43
2019-01-20T20:17:52.492Z,15.87
2019-01-20T20:22:45.402Z,15.23
2019-01-20T20:27:38.219Z,17.33
2019-01-20T20:32:31.089Z,18.90
2019-01-20T20:37:23.923Z,19.27
2019-01-20T20:42:16.872Z,20.97
2019-01-20T20:47:09.741Z,20.90
2019-01-20T20:52:02.609Z,18.10
2019-01-20T20:56:55.442Z,17.90
2019-01-20T21:01:48.258Z,18.73
2019-01-20T21:06:41.169Z,16.80
2019-01-20T21:11:33.998Z,17.00
2019-01-20T21:16:26.832Z,18.03
2019-01-20T21:21:19.663Z,19.27
2019-01-20T21:26:19.828Z,18.87
2019-01-20T21:31:12.688Z,18.50
2019-01-20T21:36:06.559Z,18.27
2019-01-20T21:40:59.431Z,19.87
2019-01-20T21:45:52.297Z,20.17
2019-01-20T21:50:45.157Z,18.13
2019-01-20T21:55:38.012Z,17.67
2019-01-20T22:00:30.851Z,17.13
2019-01-20T22:05:23.758Z,16.97
2019-01-20T22:10:18.954Z,15.57
2019-01-20T22:15:12.338Z,14.83
2019-01-20T22:20:07.326Z,14.63
2019-01-20T22:25:00.213Z,14.10
2019-01-20T22:29:53.113Z,14.90
2019-01-20T22:34:45.947Z,14.47
2019-01-20T22:39:38.908Z,14.80
2019-01-20T22:44:31.765Z,16.20
2019-01-20T22:49:24.707Z,17.70
2019-01-20T22:54:17.545Z,16.10
2019-01-20T22:59:10.400Z,15.60
2019-01-20T23:04:03.817Z,15.93
2019-01-20T23:08:56.666Z,15.20
2019-01-20T23:13:49.502Z,15.90
2019-01-20T23:18:42.415Z,15.63
2019-01-20T23:23:36.216Z,16.77
2019-01-20T23:28:29.094Z,15.53
2019-01-20T23:33:21.920Z,15.67
2019-01-20T23:38:14.790Z,16.63
2019-01-20T23:43:07.665Z,17.63
2019-01-20T23:48:03.720Z,17.13
2019-01-20T23:52:56.559Z,17.47
2019-01-20T23:57:49.465Z,15.87
